sensor_id;sensor_type;location;lat;lon;timestamp;temperature;humidity
80579;SHT31;69939;52.402;6.608;2024-02-21T00:00:38;8.92;96.35
80579;SHT31;69939;52.402;6.608;2024-02-21T00:03:07;8.93;96.20
80579;SHT31;69939;52.402;6.608;2024-02-21T00:05:36;8.92;96.24
80579;SHT31;69939;52.402;6.608;2024-02-21T00:08:06;8.86;96.40
80579;SHT31;69939;52.402;6.608;2024-02-21T00:10:39;8.88;96.40
80579;SHT31;69939;52.402;6.608;2024-02-21T00:13:08;8.85;96.35
80579;SHT31;69939;52.402;6.608;2024-02-21T00:15:37;8.88;96.26
80579;SHT31;69939;52.402;6.608;2024-02-21T00:18:06;8.86;96.40
80579;SHT31;69939;52.402;6.608;2024-02-21T00:20:36;8.89;96.30
80579;SHT31;69939;52.402;6.608;2024-02-21T00:23:12;8.92;96.14
80579;SHT31;69939;52.402;6.608;2024-02-21T00:25:41;8.93;96.21
80579;SHT31;69939;52.402;6.608;2024-02-21T00:28:11;8.98;96.13
80579;SHT31;69939;52.402;6.608;2024-02-21T00:30:40;8.93;96.36
80579;SHT31;69939;52.402;6.608;2024-02-21T00:33:09;8.95;96.06
80579;SHT31;69939;52.402;6.608;2024-02-21T00:35:39;9.03;96.01
80579;SHT31;69939;52.402;6.608;2024-02-21T00:38:12;9.02;95.91
80579;SHT31;69939;52.402;6.608;2024-02-21T00:40:41;9.06;95.94
80579;SHT31;69939;52.402;6.608;2024-02-21T00:43:11;9.02;96.33
80579;SHT31;69939;52.402;6.608;2024-02-21T00:45:40;9.03;96.03
80579;SHT31;69939;52.402;6.608;2024-02-21T00:48:10;9.10;95.69
80579;SHT31;69939;52.402;6.608;2024-02-21T00:50:39;9.10;96.00
80579;SHT31;69939;52.402;6.608;2024-02-21T00:53:08;9.12;95.74
80579;SHT31;69939;52.402;6.608;2024-02-21T00:55:41;9.12;95.96
80579;SHT31;69939;52.402;6.608;2024-02-21T00:58:11;9.09;96.00
80579;SHT31;69939;52.402;6.608;2024-02-21T01:00:41;9.09;96.06
80579;SHT31;69939;52.402;6.608;2024-02-21T01:03:10;9.10;96.04
80579;SHT31;69939;52.402;6.608;2024-02-21T01:05:39;9.06;96.28
80579;SHT31;69939;52.402;6.608;2024-02-21T01:08:09;9.08;96.01
80579;SHT31;69939;52.402;6.608;2024-02-21T01:10:41;9.06;96.23
80579;SHT31;69939;52.402;6.608;2024-02-21T01:13:10;9.10;95.94
80579;SHT31;69939;52.402;6.608;2024-02-21T01:15:39;9.06;96.12
80579;SHT31;69939;52.402;6.608;2024-02-21T01:18:08;9.00;96.37
80579;SHT31;69939;52.402;6.608;2024-02-21T01:20:44;9.00;96.41
80579;SHT31;69939;52.402;6.608;2024-02-21T01:23:13;9.00;96.46
80579;SHT31;69939;52.402;6.608;2024-02-21T01:25:43;8.96;96.42
80579;SHT31;69939;52.402;6.608;2024-02-21T01:28:12;8.95;96.61
80579;SHT31;69939;52.402;6.608;2024-02-21T01:30:47;8.98;96.47
80579;SHT31;69939;52.402;6.608;2024-02-21T01:33:17;8.95;96.63
80579;SHT31;69939;52.402;6.608;2024-02-21T01:35:46;8.98;96.57
80579;SHT31;69939;52.402;6.608;2024-02-21T01:38:15;8.96;96.55
80579;SHT31;69939;52.402;6.608;2024-02-21T01:40:46;8.92;96.61
80579;SHT31;69939;52.402;6.608;2024-02-21T01:43:15;8.95;96.42
80579;SHT31;69939;52.402;6.608;2024-02-21T01:45:50;8.98;96.64
80579;SHT31;69939;52.402;6.608;2024-02-21T01:48:22;8.90;96.70
80579;SHT31;69939;52.402;6.608;2024-02-21T01:50:54;8.93;96.77
80579;SHT31;69939;52.402;6.608;2024-02-21T01:53:29;8.92;96.89
80579;SHT31;69939;52.402;6.608;2024-02-21T01:55:59;8.90;96.91
80579;SHT31;69939;52.402;6.608;2024-02-21T01:58:31;8.89;96.88
80579;SHT31;69939;52.402;6.608;2024-02-21T02:01:05;8.89;97.09
80579;SHT31;69939;52.402;6.608;2024-02-21T02:03:35;8.89;96.86
80579;SHT31;69939;52.402;6.608;2024-02-21T02:06:04;8.89;96.89
80579;SHT31;69939;52.402;6.608;2024-02-21T02:08:34;8.89;96.99
80579;SHT31;69939;52.402;6.608;2024-02-21T02:11:04;8.89;96.87
80579;SHT31;69939;52.402;6.608;2024-02-21T02:13:34;8.90;96.68
80579;SHT31;69939;52.402;6.608;2024-02-21T02:16:07;8.92;96.65
80579;SHT31;69939;52.402;6.608;2024-02-21T02:18:36;8.95;96.62
80579;SHT31;69939;52.402;6.608;2024-02-21T02:21:07;8.96;96.66
80579;SHT31;69939;52.402;6.608;2024-02-21T02:23:45;8.95;96.64
80579;SHT31;69939;52.402;6.608;2024-02-21T02:26:15;8.95;96.57
80579;SHT31;69939;52.402;6.608;2024-02-21T02:28:44;8.99;96.39
80579;SHT31;69939;52.402;6.608;2024-02-21T02:31:13;9.02;96.56
80579;SHT31;69939;52.402;6.608;2024-02-21T02:33:43;8.98;96.48
80579;SHT31;69939;52.402;6.608;2024-02-21T02:36:13;8.99;96.59
80579;SHT31;69939;52.402;6.608;2024-02-21T02:38:46;9.00;96.33
80579;SHT31;69939;52.402;6.608;2024-02-21T02:41:15;9.05;96.32
80579;SHT31;69939;52.402;6.608;2024-02-21T02:43:44;9.08;96.11
80579;SHT31;69939;52.402;6.608;2024-02-21T02:46:14;9.09;96.13
80579;SHT31;69939;52.402;6.608;2024-02-21T02:48:43;9.13;96.17
80579;SHT31;69939;52.402;6.608;2024-02-21T02:51:13;9.16;95.81
80579;SHT31;69939;52.402;6.608;2024-02-21T02:53:45;9.19;95.59
80579;SHT31;69939;52.402;6.608;2024-02-21T02:56:15;9.20;95.35
80579;SHT31;69939;52.402;6.608;2024-02-21T02:58:44;9.24;95.45
80579;SHT31;69939;52.402;6.608;2024-02-21T03:01:14;9.23;95.69
80579;SHT31;69939;52.402;6.608;2024-02-21T03:03:43;9.20;96.00
80579;SHT31;69939;52.402;6.608;2024-02-21T03:06:13;9.20;96.59
80579;SHT31;69939;52.402;6.608;2024-02-21T03:08:45;9.06;97.10
80579;SHT31;69939;52.402;6.608;2024-02-21T03:11:15;8.95;98.15
80579;SHT31;69939;52.402;6.608;2024-02-21T03:13:44;8.83;99.05
80579;SHT31;69939;52.402;6.608;2024-02-21T03:16:20;8.75;99.99
80579;SHT31;69939;52.402;6.608;2024-02-21T03:18:49;8.68;99.97
80579;SHT31;69939;52.402;6.608;2024-02-21T03:21:21;8.61;99.99
80579;SHT31;69939;52.402;6.608;2024-02-21T03:23:50;8.72;99.36
80579;SHT31;69939;52.402;6.608;2024-02-21T03:26:20;8.75;98.82
80579;SHT31;69939;52.402;6.608;2024-02-21T03:28:49;8.83;98.28
80579;SHT31;69939;52.402;6.608;2024-02-21T03:31:21;8.89;98.19
80579;SHT31;69939;52.402;6.608;2024-02-21T03:33:51;8.92;97.85
80579;SHT31;69939;52.402;6.608;2024-02-21T03:36:20;8.95;97.48
80579;SHT31;69939;52.402;6.608;2024-02-21T03:38:49;8.99;97.08
80579;SHT31;69939;52.402;6.608;2024-02-21T03:41:19;9.03;96.74
80579;SHT31;69939;52.402;6.608;2024-02-21T03:43:48;9.06;96.75
80579;SHT31;69939;52.402;6.608;2024-02-21T03:46:18;9.06;96.61
80579;SHT31;69939;52.402;6.608;2024-02-21T03:48:50;9.09;96.67
80579;SHT31;69939;52.402;6.608;2024-02-21T03:51:19;9.13;96.32
80579;SHT31;69939;52.402;6.608;2024-02-21T03:53:49;9.09;96.65
80579;SHT31;69939;52.402;6.608;2024-02-21T03:56:18;9.15;96.14
80579;SHT31;69939;52.402;6.608;2024-02-21T03:58:47;9.19;96.04
80579;SHT31;69939;52.402;6.608;2024-02-21T04:01:17;9.16;96.28
80579;SHT31;69939;52.402;6.608;2024-02-21T04:03:49;9.16;96.13
80579;SHT31;69939;52.402;6.608;2024-02-21T04:06:18;9.16;96.04
80579;SHT31;69939;52.402;6.608;2024-02-21T04:08:48;9.15;95.97
80579;SHT31;69939;52.402;6.608;2024-02-21T04:11:17;9.12;96.35
80579;SHT31;69939;52.402;6.608;2024-02-21T04:13:47;9.10;96.20
80579;SHT31;69939;52.402;6.608;2024-02-21T04:16:17;9.10;96.70
80579;SHT31;69939;52.402;6.608;2024-02-21T04:18:50;9.05;96.83
80579;SHT31;69939;52.402;6.608;2024-02-21T04:21:20;8.99;97.11
80579;SHT31;69939;52.402;6.608;2024-02-21T04:23:57;8.96;97.16
80579;SHT31;69939;52.402;6.608;2024-02-21T04:26:28;8.95;97.26
80579;SHT31;69939;52.402;6.608;2024-02-21T04:28:58;8.93;97.17
80579;SHT31;69939;52.402;6.608;2024-02-21T04:31:28;8.93;96.94
80579;SHT31;69939;52.402;6.608;2024-02-21T04:33:57;8.95;96.98
80579;SHT31;69939;52.402;6.608;2024-02-21T04:36:28;8.95;97.07
80579;SHT31;69939;52.402;6.608;2024-02-21T04:39:01;8.92;96.89
80579;SHT31;69939;52.402;6.608;2024-02-21T04:41:30;8.96;96.83
80579;SHT31;69939;52.402;6.608;2024-02-21T04:43:59;8.90;97.03
80579;SHT31;69939;52.402;6.608;2024-02-21T04:46:29;8.89;97.24
80579;SHT31;69939;52.402;6.608;2024-02-21T04:48:58;8.90;97.27
80579;SHT31;69939;52.402;6.608;2024-02-21T04:51:28;8.89;96.94
80579;SHT31;69939;52.402;6.608;2024-02-21T04:54:00;8.89;96.86
80579;SHT31;69939;52.402;6.608;2024-02-21T04:56:29;8.85;96.95
80579;SHT31;69939;52.402;6.608;2024-02-21T04:58:58;8.86;96.68
80579;SHT31;69939;52.402;6.608;2024-02-21T05:01:28;8.85;96.80
80579;SHT31;69939;52.402;6.608;2024-02-21T05:03:58;8.83;96.97
80579;SHT31;69939;52.402;6.608;2024-02-21T05:06:28;8.85;96.86
80579;SHT31;69939;52.402;6.608;2024-02-21T05:09:00;8.85;96.65
80579;SHT31;69939;52.402;6.608;2024-02-21T05:11:30;8.88;96.55
80579;SHT31;69939;52.402;6.608;2024-02-21T05:14:00;8.85;96.64
80579;SHT31;69939;52.402;6.608;2024-02-21T05:16:29;8.85;96.44
80579;SHT31;69939;52.402;6.608;2024-02-21T05:18:59;8.83;96.50
80579;SHT31;69939;52.402;6.608;2024-02-21T05:21:34;8.78;96.65
80579;SHT31;69939;52.402;6.608;2024-02-21T05:24:04;8.86;96.69
80579;SHT31;69939;52.402;6.608;2024-02-21T05:26:34;8.83;96.65
80579;SHT31;69939;52.402;6.608;2024-02-21T05:29:05;8.82;96.30
80579;SHT31;69939;52.402;6.608;2024-02-21T05:31:55;8.82;96.47
80579;SHT31;69939;52.402;6.608;2024-02-21T05:34:26;8.83;96.41
80579;SHT31;69939;52.402;6.608;2024-02-21T05:36:58;8.79;96.40
80579;SHT31;69939;52.402;6.608;2024-02-21T05:39:28;8.82;96.28
80579;SHT31;69939;52.402;6.608;2024-02-21T05:41:57;8.81;96.23
80579;SHT31;69939;52.402;6.608;2024-02-21T05:44:26;8.78;96.44
80579;SHT31;69939;52.402;6.608;2024-02-21T05:46:56;8.79;96.39
80579;SHT31;69939;52.402;6.608;2024-02-21T05:49:25;8.81;96.19
80579;SHT31;69939;52.402;6.608;2024-02-21T05:51:55;8.78;96.28
80579;SHT31;69939;52.402;6.608;2024-02-21T05:54:27;8.78;96.14
80579;SHT31;69939;52.402;6.608;2024-02-21T05:56:56;8.81;96.18
80579;SHT31;69939;52.402;6.608;2024-02-21T05:59:25;8.83;96.15
80579;SHT31;69939;52.402;6.608;2024-02-21T06:01:56;8.79;96.08
80579;SHT31;69939;52.402;6.608;2024-02-21T06:04:28;8.78;96.29
80579;SHT31;69939;52.402;6.608;2024-02-21T06:07:04;8.81;96.13
80579;SHT31;69939;52.402;6.608;2024-02-21T06:09:33;8.81;96.02
80579;SHT31;69939;52.402;6.608;2024-02-21T06:12:03;8.79;96.33
80579;SHT31;69939;52.402;6.608;2024-02-21T06:14:33;8.78;96.24
80579;SHT31;69939;52.402;6.608;2024-02-21T06:17:03;8.75;96.17
80579;SHT31;69939;52.402;6.608;2024-02-21T06:19:32;8.75;96.27
80579;SHT31;69939;52.402;6.608;2024-02-21T06:22:04;8.75;96.05
80579;SHT31;69939;52.402;6.608;2024-02-21T06:24:41;8.75;96.10
80579;SHT31;69939;52.402;6.608;2024-02-21T06:27:11;8.76;96.16
80579;SHT31;69939;52.402;6.608;2024-02-21T06:29:41;8.72;96.17
80579;SHT31;69939;52.402;6.608;2024-02-21T06:32:11;8.73;95.95
80579;SHT31;69939;52.402;6.608;2024-02-21T06:34:40;8.75;96.07
80579;SHT31;69939;52.402;6.608;2024-02-21T06:37:12;8.78;95.72
80579;SHT31;69939;52.402;6.608;2024-02-21T06:39:41;8.76;95.83
80579;SHT31;69939;52.402;6.608;2024-02-21T06:42:11;8.79;95.76
80579;SHT31;69939;52.402;6.608;2024-02-21T06:44:40;8.75;95.65
80579;SHT31;69939;52.402;6.608;2024-02-21T06:47:09;8.79;95.61
80579;SHT31;69939;52.402;6.608;2024-02-21T06:49:39;8.79;95.59
80579;SHT31;69939;52.402;6.608;2024-02-21T06:52:08;8.79;95.82
80579;SHT31;69939;52.402;6.608;2024-02-21T06:54:44;8.81;95.47
80579;SHT31;69939;52.402;6.608;2024-02-21T06:57:14;8.78;95.47
80579;SHT31;69939;52.402;6.608;2024-02-21T06:59:44;8.81;95.39
80579;SHT31;69939;52.402;6.608;2024-02-21T07:02:13;8.82;95.64
80579;SHT31;69939;52.402;6.608;2024-02-21T07:04:44;8.76;95.40
80579;SHT31;69939;52.402;6.608;2024-02-21T07:07:13;8.88;95.26
80579;SHT31;69939;52.402;6.608;2024-02-21T07:09:48;8.85;95.15
80579;SHT31;69939;52.402;6.608;2024-02-21T07:12:19;8.82;95.42
80579;SHT31;69939;52.402;6.608;2024-02-21T07:14:49;8.81;95.27
80579;SHT31;69939;52.402;6.608;2024-02-21T07:17:18;8.82;95.02
80579;SHT31;69939;52.402;6.608;2024-02-21T07:19:47;8.78;95.15
80579;SHT31;69939;52.402;6.608;2024-02-21T07:22:17;8.81;95.26
80579;SHT31;69939;52.402;6.608;2024-02-21T07:24:49;8.81;95.17
80579;SHT31;69939;52.402;6.608;2024-02-21T07:27:19;8.85;95.12
80579;SHT31;69939;52.402;6.608;2024-02-21T07:29:49;8.83;95.37
80579;SHT31;69939;52.402;6.608;2024-02-21T07:32:18;8.86;94.99
80579;SHT31;69939;52.402;6.608;2024-02-21T07:34:47;8.88;94.84
80579;SHT31;69939;52.402;6.608;2024-02-21T07:37:17;8.85;94.82
80579;SHT31;69939;52.402;6.608;2024-02-21T07:39:49;8.89;94.63
80579;SHT31;69939;52.402;6.608;2024-02-21T07:42:18;8.90;95.04
80579;SHT31;69939;52.402;6.608;2024-02-21T07:44:48;8.89;94.43
80579;SHT31;69939;52.402;6.608;2024-02-21T07:47:17;8.89;94.68
80579;SHT31;69939;52.402;6.608;2024-02-21T07:49:46;8.92;94.40
80579;SHT31;69939;52.402;6.608;2024-02-21T07:52:16;8.93;94.45
80579;SHT31;69939;52.402;6.608;2024-02-21T07:54:45;8.95;94.24
80579;SHT31;69939;52.402;6.608;2024-02-21T07:57:17;8.93;94.19
80579;SHT31;69939;52.402;6.608;2024-02-21T07:59:48;8.96;94.19
80579;SHT31;69939;52.402;6.608;2024-02-21T08:02:18;8.93;94.02
80579;SHT31;69939;52.402;6.608;2024-02-21T08:04:47;8.93;94.10
80579;SHT31;69939;52.402;6.608;2024-02-21T08:07:17;8.96;93.66
80579;SHT31;69939;52.402;6.608;2024-02-21T08:09:46;8.96;93.92
80579;SHT31;69939;52.402;6.608;2024-02-21T08:12:18;8.90;94.08
80579;SHT31;69939;52.402;6.608;2024-02-21T08:14:47;8.96;93.78
80579;SHT31;69939;52.402;6.608;2024-02-21T08:17:17;9.02;93.89
80579;SHT31;69939;52.402;6.608;2024-02-21T08:19:47;9.08;93.95
80579;SHT31;69939;52.402;6.608;2024-02-21T08:22:16;9.05;93.84
80579;SHT31;69939;52.402;6.608;2024-02-21T08:24:46;9.08;93.42
80579;SHT31;69939;52.402;6.608;2024-02-21T08:27:18;9.06;93.20
80579;SHT31;69939;52.402;6.608;2024-02-21T08:29:48;9.19;93.29
80579;SHT31;69939;52.402;6.608;2024-02-21T08:32:17;9.20;93.07
80579;SHT31;69939;52.402;6.608;2024-02-21T08:34:47;9.22;93.33
80579;SHT31;69939;52.402;6.608;2024-02-21T08:37:16;9.22;93.19
80579;SHT31;69939;52.402;6.608;2024-02-21T08:39:45;9.18;93.02
80579;SHT31;69939;52.402;6.608;2024-02-21T08:42:19;9.27;93.08
80579;SHT31;69939;52.402;6.608;2024-02-21T08:44:48;9.30;93.13
80579;SHT31;69939;52.402;6.608;2024-02-21T08:47:18;9.22;92.62
80579;SHT31;69939;52.402;6.608;2024-02-21T08:49:47;9.23;92.58
80579;SHT31;69939;52.402;6.608;2024-02-21T08:52:17;9.24;92.90
80579;SHT31;69939;52.402;6.608;2024-02-21T08:54:46;9.30;92.54
80579;SHT31;69939;52.402;6.608;2024-02-21T08:57:21;9.34;92.34
80579;SHT31;69939;52.402;6.608;2024-02-21T08:59:51;9.33;92.60
80579;SHT31;69939;52.402;6.608;2024-02-21T09:02:20;9.34;92.20
80579;SHT31;69939;52.402;6.608;2024-02-21T09:04:49;9.33;92.55
80579;SHT31;69939;52.402;6.608;2024-02-21T09:07:19;9.54;92.90
80579;SHT31;69939;52.402;6.608;2024-02-21T09:09:48;9.50;92.18
80579;SHT31;69939;52.402;6.608;2024-02-21T09:12:17;9.51;91.38
80579;SHT31;69939;52.402;6.608;2024-02-21T09:14:50;9.57;92.16
80579;SHT31;69939;52.402;6.608;2024-02-21T09:17:19;9.51;91.72
80579;SHT31;69939;52.402;6.608;2024-02-21T09:19:50;9.51;91.58
80579;SHT31;69939;52.402;6.608;2024-02-21T09:22:21;9.62;91.77
80579;SHT31;69939;52.402;6.608;2024-02-21T09:24:50;9.61;91.28
80579;SHT31;69939;52.402;6.608;2024-02-21T09:27:23;9.65;91.56
80579;SHT31;69939;52.402;6.608;2024-02-21T09:29:53;9.81;91.29
80579;SHT31;69939;52.402;6.608;2024-02-21T09:32:22;9.77;91.62
80579;SHT31;69939;52.402;6.608;2024-02-21T09:34:52;9.58;90.90
80579;SHT31;69939;52.402;6.608;2024-02-21T09:37:22;9.62;91.21
80579;SHT31;69939;52.402;6.608;2024-02-21T09:39:51;9.62;91.05
80579;SHT31;69939;52.402;6.608;2024-02-21T09:42:32;9.71;91.18
80579;SHT31;69939;52.402;6.608;2024-02-21T09:45:09;9.70;91.51
80579;SHT31;69939;52.402;6.608;2024-02-21T09:47:50;9.74;91.07
80579;SHT31;69939;52.402;6.608;2024-02-21T09:50:34;9.71;90.93
80579;SHT31;69939;52.402;6.608;2024-02-21T09:53:06;9.71;91.36
80579;SHT31;69939;52.402;6.608;2024-02-21T09:55:38;9.70;91.32
80579;SHT31;69939;52.402;6.608;2024-02-21T09:58:11;9.64;91.17
80579;SHT31;69939;52.402;6.608;2024-02-21T10:00:41;9.70;91.08
80579;SHT31;69939;52.402;6.608;2024-02-21T10:03:11;9.77;91.16
80579;SHT31;69939;52.402;6.608;2024-02-21T10:05:48;9.79;90.25
80579;SHT31;69939;52.402;6.608;2024-02-21T10:08:19;9.95;90.62
80579;SHT31;69939;52.402;6.608;2024-02-21T10:10:49;9.84;89.90
80579;SHT31;69939;52.402;6.608;2024-02-21T10:13:29;9.92;90.79
80579;SHT31;69939;52.402;6.608;2024-02-21T10:16:03;9.92;90.10
80579;SHT31;69939;52.402;6.608;2024-02-21T10:18:35;9.96;90.43
80579;SHT31;69939;52.402;6.608;2024-02-21T10:21:06;9.96;90.15
80579;SHT31;69939;52.402;6.608;2024-02-21T10:23:43;10.06;90.00
80579;SHT31;69939;52.402;6.608;2024-02-21T10:26:14;10.22;90.30
80579;SHT31;69939;52.402;6.608;2024-02-21T10:28:49;10.22;90.38
80579;SHT31;69939;52.402;6.608;2024-02-21T10:31:23;10.32;89.01
80579;SHT31;69939;52.402;6.608;2024-02-21T10:33:55;10.28;89.25
80579;SHT31;69939;52.402;6.608;2024-02-21T10:36:25;10.16;89.35
80579;SHT31;69939;52.402;6.608;2024-02-21T10:38:55;10.16;89.66
80579;SHT31;69939;52.402;6.608;2024-02-21T10:41:31;10.22;89.40
80579;SHT31;69939;52.402;6.608;2024-02-21T10:44:05;10.23;88.69
80579;SHT31;69939;52.402;6.608;2024-02-21T10:46:38;10.42;89.15
80579;SHT31;69939;52.402;6.608;2024-02-21T10:49:10;10.50;88.28
80579;SHT31;69939;52.402;6.608;2024-02-21T10:51:55;10.44;89.00
80579;SHT31;69939;52.402;6.608;2024-02-21T10:54:42;10.43;88.83
80579;SHT31;69939;52.402;6.608;2024-02-21T10:57:19;10.47;88.03
80579;SHT31;69939;52.402;6.608;2024-02-21T10:59:51;10.39;88.34
80579;SHT31;69939;52.402;6.608;2024-02-21T11:02:24;10.53;89.09
80579;SHT31;69939;52.402;6.608;2024-02-21T11:04:57;10.29;87.74
80579;SHT31;69939;52.402;6.608;2024-02-21T11:07:36;10.28;88.81
80579;SHT31;69939;52.402;6.608;2024-02-21T11:10:20;10.42;87.98
80579;SHT31;69939;52.402;6.608;2024-02-21T11:12:53;10.50;87.75
80579;SHT31;69939;52.402;6.608;2024-02-21T11:15:25;10.44;88.67
80579;SHT31;69939;52.402;6.608;2024-02-21T11:17:56;10.33;88.33
80579;SHT31;69939;52.402;6.608;2024-02-21T11:20:32;10.29;87.87
80579;SHT31;69939;52.402;6.608;2024-02-21T11:23:05;10.44;89.29
80579;SHT31;69939;52.402;6.608;2024-02-21T11:25:35;10.34;87.66
80579;SHT31;69939;52.402;6.608;2024-02-21T11:28:05;10.16;88.20
80579;SHT31;69939;52.402;6.608;2024-02-21T11:30:36;10.13;88.06
80579;SHT31;69939;52.402;6.608;2024-02-21T11:33:06;9.96;88.65
80579;SHT31;69939;52.402;6.608;2024-02-21T11:35:36;9.98;88.88
80579;SHT31;69939;52.402;6.608;2024-02-21T11:38:15;10.03;89.04
80579;SHT31;69939;52.402;6.608;2024-02-21T11:40:45;10.08;89.25
80579;SHT31;69939;52.402;6.608;2024-02-21T11:43:15;10.15;89.25
80579;SHT31;69939;52.402;6.608;2024-02-21T11:45:45;10.05;89.22
80579;SHT31;69939;52.402;6.608;2024-02-21T11:48:14;9.91;89.61
80579;SHT31;69939;52.402;6.608;2024-02-21T11:50:53;9.73;90.33
80579;SHT31;69939;52.402;6.608;2024-02-21T11:53:28;9.88;90.64
80579;SHT31;69939;52.402;6.608;2024-02-21T11:55:58;9.92;90.30
80579;SHT31;69939;52.402;6.608;2024-02-21T11:58:28;9.88;91.09
80579;SHT31;69939;52.402;6.608;2024-02-21T12:01:07;9.74;91.71
80579;SHT31;69939;52.402;6.608;2024-02-21T12:03:37;9.75;91.71
80579;SHT31;69939;52.402;6.608;2024-02-21T12:06:07;9.77;91.74
80579;SHT31;69939;52.402;6.608;2024-02-21T12:08:43;9.65;92.19
80579;SHT31;69939;52.402;6.608;2024-02-21T12:11:18;9.73;92.32
80579;SHT31;69939;52.402;6.608;2024-02-21T12:13:59;9.64;92.28
80579;SHT31;69939;52.402;6.608;2024-02-21T12:16:33;9.57;92.84
80579;SHT31;69939;52.402;6.608;2024-02-21T12:19:03;9.47;92.95
80579;SHT31;69939;52.402;6.608;2024-02-21T12:21:34;9.54;93.29
80579;SHT31;69939;52.402;6.608;2024-02-21T12:24:12;9.50;92.57
80579;SHT31;69939;52.402;6.608;2024-02-21T12:26:43;9.37;93.04
80579;SHT31;69939;52.402;6.608;2024-02-21T12:29:12;9.37;92.91
80579;SHT31;69939;52.402;6.608;2024-02-21T12:31:44;9.41;92.49
80579;SHT31;69939;52.402;6.608;2024-02-21T12:34:15;9.44;92.43
80579;SHT31;69939;52.402;6.608;2024-02-21T12:36:46;9.46;92.26
80579;SHT31;69939;52.402;6.608;2024-02-21T12:39:17;9.48;91.89
80579;SHT31;69939;52.402;6.608;2024-02-21T12:41:47;9.65;92.08
80579;SHT31;69939;52.402;6.608;2024-02-21T12:44:17;9.54;92.01
80579;SHT31;69939;52.402;6.608;2024-02-21T12:46:48;9.62;92.07
80579;SHT31;69939;52.402;6.608;2024-02-21T12:49:19;9.57;92.11
80579;SHT31;69939;52.402;6.608;2024-02-21T12:51:49;9.51;91.74
80579;SHT31;69939;52.402;6.608;2024-02-21T12:54:21;9.46;91.74
80579;SHT31;69939;52.402;6.608;2024-02-21T12:56:51;9.48;91.37
80579;SHT31;69939;52.402;6.608;2024-02-21T12:59:23;9.47;91.57
80579;SHT31;69939;52.402;6.608;2024-02-21T13:01:56;9.54;91.09
80579;SHT31;69939;52.402;6.608;2024-02-21T13:04:26;9.67;90.79
80579;SHT31;69939;52.402;6.608;2024-02-21T13:06:56;9.86;89.77
80579;SHT31;69939;52.402;6.608;2024-02-21T13:09:25;10.01;89.21
80579;SHT31;69939;52.402;6.608;2024-02-21T13:11:55;10.23;89.03
80579;SHT31;69939;52.402;6.608;2024-02-21T13:14:24;10.25;87.87
80579;SHT31;69939;52.402;6.608;2024-02-21T13:16:56;10.40;87.66
80579;SHT31;69939;52.402;6.608;2024-02-21T13:19:26;10.42;87.22
80579;SHT31;69939;52.402;6.608;2024-02-21T13:22:01;10.29;87.70
80579;SHT31;69939;52.402;6.608;2024-02-21T13:24:31;10.40;88.04
80579;SHT31;69939;52.402;6.608;2024-02-21T13:27:00;10.26;87.51
80579;SHT31;69939;52.402;6.608;2024-02-21T13:29:30;10.29;87.10
80579;SHT31;69939;52.402;6.608;2024-02-21T13:32:00;10.32;87.05
80579;SHT31;69939;52.402;6.608;2024-02-21T13:34:35;10.59;87.17
80579;SHT31;69939;52.402;6.608;2024-02-21T13:37:05;10.53;86.18
80579;SHT31;69939;52.402;6.608;2024-02-21T13:39:35;10.64;86.91
80579;SHT31;69939;52.402;6.608;2024-02-21T13:42:07;10.60;86.69
80579;SHT31;69939;52.402;6.608;2024-02-21T13:44:37;10.57;86.51
80579;SHT31;69939;52.402;6.608;2024-02-21T13:47:07;10.67;86.03
80579;SHT31;69939;52.402;6.608;2024-02-21T13:49:43;10.74;85.98
80579;SHT31;69939;52.402;6.608;2024-02-21T13:52:13;10.59;86.69
80579;SHT31;69939;52.402;6.608;2024-02-21T13:54:45;10.53;85.96
80579;SHT31;69939;52.402;6.608;2024-02-21T13:57:15;10.32;86.84
80579;SHT31;69939;52.402;6.608;2024-02-21T13:59:44;10.30;87.39
80579;SHT31;69939;52.402;6.608;2024-02-21T14:02:15;10.29;87.17
80579;SHT31;69939;52.402;6.608;2024-02-21T14:04:48;10.44;87.13
80579;SHT31;69939;52.402;6.608;2024-02-21T14:07:17;10.36;86.68
80579;SHT31;69939;52.402;6.608;2024-02-21T14:09:47;10.39;86.30
80579;SHT31;69939;52.402;6.608;2024-02-21T14:12:16;10.40;86.59
80579;SHT31;69939;52.402;6.608;2024-02-21T14:14:47;10.39;87.09
80579;SHT31;69939;52.402;6.608;2024-02-21T14:17:17;10.33;86.68
80579;SHT31;69939;52.402;6.608;2024-02-21T14:19:49;10.29;87.53
80579;SHT31;69939;52.402;6.608;2024-02-21T14:22:19;10.44;87.16
80579;SHT31;69939;52.402;6.608;2024-02-21T14:24:48;10.54;86.85
80579;SHT31;69939;52.402;6.608;2024-02-21T14:27:33;10.53;86.69
80579;SHT31;69939;52.402;6.608;2024-02-21T14:30:03;10.52;86.39
80579;SHT31;69939;52.402;6.608;2024-02-21T14:32:43;10.43;86.22
80579;SHT31;69939;52.402;6.608;2024-02-21T14:35:14;10.49;87.19
80579;SHT31;69939;52.402;6.608;2024-02-21T14:37:43;10.42;86.29
80579;SHT31;69939;52.402;6.608;2024-02-21T14:40:16;10.53;86.95
80579;SHT31;69939;52.402;6.608;2024-02-21T14:42:46;10.52;86.36
80579;SHT31;69939;52.402;6.608;2024-02-21T14:45:17;10.59;85.99
80579;SHT31;69939;52.402;6.608;2024-02-21T14:51:24;10.59;85.42
80579;SHT31;69939;52.402;6.608;2024-02-21T14:53:53;10.60;85.78
80579;SHT31;69939;52.402;6.608;2024-02-21T14:56:23;10.65;86.17
80579;SHT31;69939;52.402;6.608;2024-02-21T14:58:52;10.61;86.04
80579;SHT31;69939;52.402;6.608;2024-02-21T15:01:22;10.59;86.32
80579;SHT31;69939;52.402;6.608;2024-02-21T15:03:52;10.56;85.94
80579;SHT31;69939;52.402;6.608;2024-02-21T15:06:24;10.52;86.09
80579;SHT31;69939;52.402;6.608;2024-02-21T15:08:57;10.53;85.83
80579;SHT31;69939;52.402;6.608;2024-02-21T15:11:26;10.50;86.20
80579;SHT31;69939;52.402;6.608;2024-02-21T15:13:55;10.50;86.59
80579;SHT31;69939;52.402;6.608;2024-02-21T15:16:25;10.53;85.72
80579;SHT31;69939;52.402;6.608;2024-02-21T15:18:55;10.53;85.34
80579;SHT31;69939;52.402;6.608;2024-02-21T15:21:27;10.52;85.74
80579;SHT31;69939;52.402;6.608;2024-02-21T15:23:57;10.53;85.29
80579;SHT31;69939;52.402;6.608;2024-02-21T15:26:27;10.54;85.40
80579;SHT31;69939;52.402;6.608;2024-02-21T15:28:57;10.52;85.60
80579;SHT31;69939;52.402;6.608;2024-02-21T15:31:27;10.52;85.28
80579;SHT31;69939;52.402;6.608;2024-02-21T15:33:56;10.56;85.34
80579;SHT31;69939;52.402;6.608;2024-02-21T15:36:28;10.56;85.87
80579;SHT31;69939;52.402;6.608;2024-02-21T15:38:57;10.54;84.97
80579;SHT31;69939;52.402;6.608;2024-02-21T15:41:28;10.56;85.26
80579;SHT31;69939;52.402;6.608;2024-02-21T15:43:58;10.52;85.50
80579;SHT31;69939;52.402;6.608;2024-02-21T15:46:33;10.47;85.79
80579;SHT31;69939;52.402;6.608;2024-02-21T15:49:03;10.37;85.82
80579;SHT31;69939;52.402;6.608;2024-02-21T15:51:33;10.30;86.25
80579;SHT31;69939;52.402;6.608;2024-02-21T15:54:05;10.22;87.10
80579;SHT31;69939;52.402;6.608;2024-02-21T15:56:35;10.13;87.73
80579;SHT31;69939;52.402;6.608;2024-02-21T15:59:05;9.96;88.72
80579;SHT31;69939;52.402;6.608;2024-02-21T16:01:39;9.85;89.45
80579;SHT31;69939;52.402;6.608;2024-02-21T16:04:09;9.85;89.43
80579;SHT31;69939;52.402;6.608;2024-02-21T16:06:47;9.77;90.34
80579;SHT31;69939;52.402;6.608;2024-02-21T16:09:17;9.71;90.24